createdAt,value
2018-08-31T00:00:06.875Z,1013.18
2018-08-31T00:01:06.897Z,1013.18
2018-08-31T00:02:06.919Z,1013.19
2018-08-31T00:03:06.943Z,1013.16
2018-08-31T00:04:06.964Z,1013.19
2018-08-31T00:05:06.990Z,1013.21
2018-08-31T00:06:07.013Z,1013.21
2018-08-31T00:07:07.033Z,1013.19
2018-08-31T00:08:07.055Z,1013.16
2018-08-31T00:09:07.077Z,1013.2
2018-08-31T00:10:07.099Z,1013.22
2018-08-31T00:11:07.122Z,1013.18
2018-08-31T00:13:07.166Z,1013.23
2018-08-31T00:14:07.188Z,1013.15
2018-08-31T00:15:07.212Z,1013.21
2018-08-31T00:16:07.233Z,1013.22
2018-08-31T00:17:07.259Z,1013.18
2018-08-31T00:18:07.278Z,1013.26
2018-08-31T00:19:07.302Z,1013.24
2018-08-31T00:20:07.322Z,1013.22
2018-08-31T00:21:07.344Z,1013.16
2018-08-31T00:22:07.369Z,1013.14
2018-08-31T00:23:07.390Z,1013.15
2018-08-31T00:24:07.412Z,1013.23
2018-08-31T00:25:07.435Z,1013.21
2018-08-31T00:26:07.457Z,1013.18
2018-08-31T00:27:07.478Z,1013.2
2018-08-31T00:29:07.526Z,1013.22
2018-08-31T00:30:07.547Z,1013.25
2018-08-31T00:31:07.569Z,1013.19
2018-08-31T00:32:07.591Z,1013.23
2018-08-31T00:33:07.616Z,1013.25
2018-08-31T00:34:07.635Z,1013.25
2018-08-31T00:35:07.658Z,1013.27
2018-08-31T00:36:07.681Z,1013.31
2018-08-31T00:37:07.704Z,1013.3
2018-08-31T00:38:07.724Z,1013.28
2018-08-31T00:39:07.747Z,1013.31
2018-08-31T00:40:07.769Z,1013.32
2018-08-31T00:41:07.792Z,1013.36
2018-08-31T00:42:07.814Z,1013.29
2018-08-31T00:44:07.860Z,1013.34
2018-08-31T00:45:07.881Z,1013.33
2018-08-31T00:46:07.903Z,1013.32
2018-08-31T00:47:07.926Z,1013.29
2018-08-31T00:48:07.948Z,1013.26
2018-08-31T00:49:07.970Z,1013.27
2018-08-31T00:50:07.993Z,1013.27
2018-08-31T00:51:08.015Z,1013.36
2018-08-31T00:52:08.037Z,1013.32
2018-08-31T00:53:08.058Z,1013.29
2018-08-31T00:54:08.084Z,1013.31
2018-08-31T00:55:08.106Z,1013.34
2018-08-31T00:56:08.126Z,1013.36
2018-08-31T00:57:08.148Z,1013.35
2018-08-31T00:58:08.271Z,1013.3
2018-08-31T00:59:08.193Z,1013.32
2018-08-31T01:00:08.215Z,1013.3
2018-08-31T01:01:08.237Z,1013.31
2018-08-31T01:02:08.264Z,1013.36
2018-08-31T01:03:08.282Z,1013.33
2018-08-31T01:04:08.303Z,1013.33
2018-08-31T01:05:08.327Z,1013.31
2018-08-31T01:06:08.349Z,1013.29
2018-08-31T01:07:08.370Z,1013.3
2018-08-31T01:08:08.393Z,1013.31
2018-08-31T01:09:08.415Z,1013.27
2018-08-31T01:10:08.439Z,1013.27
2018-08-31T01:11:08.458Z,1013.28
2018-08-31T01:12:08.481Z,1013.29
2018-08-31T01:13:08.503Z,1013.31
2018-08-31T01:14:08.524Z,1013.28
2018-08-31T01:16:08.570Z,1013.28
2018-08-31T01:17:08.593Z,1013.24
2018-08-31T01:18:08.622Z,1013.24
2018-08-31T01:19:08.635Z,1013.21
2018-08-31T01:20:08.658Z,1013.22
2018-08-31T01:21:08.680Z,1013.3
2018-08-31T01:22:08.701Z,1013.2
2018-08-31T01:23:08.724Z,1013.21
2018-08-31T01:24:08.746Z,1013.25
2018-08-31T01:25:08.767Z,1013.19
2018-08-31T01:26:08.790Z,1013.19
2018-08-31T01:27:08.812Z,1013.15
2018-08-31T01:28:08.834Z,1013.14
2018-08-31T01:29:08.856Z,1013.2
2018-08-31T01:30:08.878Z,1013.2
2018-08-31T01:32:08.922Z,1013.25
2018-08-31T01:33:08.946Z,1013.24
2018-08-31T01:34:08.966Z,1013.28
2018-08-31T01:35:08.987Z,1013.33
2018-08-31T01:36:09.010Z,1013.3
2018-08-31T01:37:09.032Z,1013.3
2018-08-31T01:38:09.054Z,1013.25
2018-08-31T01:39:09.126Z,1013.33
2018-08-31T01:40:09.097Z,1013.36
2018-08-31T01:41:09.118Z,1013.36
2018-08-31T01:42:09.142Z,1013.35
2018-08-31T01:43:09.165Z,1013.38
2018-08-31T01:44:09.185Z,1013.4
2018-08-31T01:45:09.206Z,1013.38
2018-08-31T01:46:09.229Z,1013.35
2018-08-31T01:48:09.274Z,1013.37
2018-08-31T01:49:09.296Z,1013.4
2018-08-31T01:50:09.315Z,1013.38
2018-08-31T01:51:09.337Z,1013.38
2018-08-31T01:52:09.360Z,1013.38
2018-08-31T01:53:09.382Z,1013.38
2018-08-31T01:54:09.404Z,1013.33
2018-08-31T01:55:09.426Z,1013.39
2018-08-31T01:56:09.447Z,1013.37
2018-08-31T01:57:09.470Z,1013.42
2018-08-31T01:58:09.491Z,1013.41
2018-08-31T01:59:09.516Z,1013.43
2018-08-31T02:00:09.534Z,1013.43
2018-08-31T02:01:09.557Z,1013.39
2018-08-31T02:02:09.576Z,1013.33
2018-08-31T02:04:09.646Z,1013.37
2018-08-31T02:05:09.647Z,1013.39
2018-08-31T02:06:09.665Z,1013.31
2018-08-31T02:07:09.688Z,1013.35
2018-08-31T02:08:09.707Z,1013.31
2018-08-31T02:09:09.730Z,1013.36
2018-08-31T02:10:09.751Z,1013.35
2018-08-31T02:11:09.774Z,1013.42
2018-08-31T02:12:09.795Z,1013.38
2018-08-31T02:13:09.821Z,1013.37
2018-08-31T02:14:09.840Z,1013.44
2018-08-31T02:15:09.860Z,1013.45
2018-08-31T02:16:09.884Z,1013.51
2018-08-31T02:17:09.905Z,1013.46
2018-08-31T02:19:09.949Z,1013.55
2018-08-31T02:20:09.970Z,1013.46
2018-08-31T02:21:10.001Z,1013.47
2018-08-31T02:22:10.015Z,1013.5
2018-08-31T02:23:10.035Z,1013.43
2018-08-31T02:24:10.057Z,1013.47
2018-08-31T02:25:10.080Z,1013.42
2018-08-31T02:26:10.102Z,1013.45
2018-08-31T02:27:10.122Z,1013.47
2018-08-31T02:28:10.165Z,1013.48
2018-08-31T02:29:10.166Z,1013.49
2018-08-31T02:30:10.190Z,1013.5
2018-08-31T02:31:10.209Z,1013.49
2018-08-31T02:32:10.231Z,1013.46
2018-08-31T02:33:10.253Z,1013.49
2018-08-31T02:34:10.273Z,1013.51
2018-08-31T02:35:10.298Z,1013.5
2018-08-31T02:36:10.316Z,1013.47
2018-08-31T02:37:10.338Z,1013.53
2018-08-31T02:38:10.360Z,1013.55
2018-08-31T02:39:10.474Z,1013.5
2018-08-31T02:40:10.403Z,1013.54
2018-08-31T02:41:10.526Z,1013.49
2018-08-31T02:42:10.445Z,1013.5
2018-08-31T02:43:10.469Z,1013.51
2018-08-31T02:44:10.491Z,1013.52
2018-08-31T02:45:10.513Z,1013.5
2018-08-31T02:46:10.532Z,1013.55
2018-08-31T02:47:10.555Z,1013.54
2018-08-31T02:48:10.577Z,1013.57
2018-08-31T02:49:10.605Z,1013.59
2018-08-31T02:51:10.642Z,1013.59
2018-08-31T02:52:10.664Z,1013.6
2018-08-31T02:53:10.684Z,1013.57
2018-08-31T02:54:10.705Z,1013.59
2018-08-31T02:55:10.728Z,1013.64
2018-08-31T02:56:10.749Z,1013.61
2018-08-31T02:57:10.770Z,1013.61
2018-08-31T02:58:10.793Z,1013.62
2018-08-31T02:59:10.813Z,1013.65
2018-08-31T03:00:10.836Z,1013.62
2018-08-31T03:01:10.857Z,1013.62
2018-08-31T03:02:10.889Z,1013.65
2018-08-31T03:03:10.901Z,1013.64
2018-08-31T03:04:10.921Z,1013.67
2018-08-31T03:05:10.948Z,1013.66
2018-08-31T03:07:10.986Z,1013.69
2018-08-31T03:08:11.006Z,1013.71
2018-08-31T03:09:11.029Z,1013.7
2018-08-31T03:10:11.049Z,1013.75
2018-08-31T03:11:11.071Z,1013.73
2018-08-31T03:12:11.097Z,1013.72
2018-08-31T03:13:11.115Z,1013.76
2018-08-31T03:14:11.136Z,1013.74
2018-08-31T03:15:11.157Z,1013.76
2018-08-31T03:16:11.279Z,1013.73
2018-08-31T03:17:11.200Z,1013.79
2018-08-31T03:18:11.222Z,1013.79
2018-08-31T03:19:11.242Z,1013.79
2018-08-31T03:20:11.264Z,1013.81
2018-08-31T03:21:11.350Z,1013.82
2018-08-31T03:23:11.328Z,1013.86
2018-08-31T03:24:11.349Z,1013.83
2018-08-31T03:25:11.374Z,1013.84
2018-08-31T03:26:11.392Z,1013.83
2018-08-31T03:27:11.415Z,1013.85
2018-08-31T03:28:11.434Z,1013.86
2018-08-31T03:29:11.457Z,1013.86
2018-08-31T03:30:11.478Z,1013.89
2018-08-31T03:31:11.498Z,1013.87
2018-08-31T03:32:11.521Z,1013.89
2018-08-31T03:33:11.542Z,1013.91
2018-08-31T03:34:11.565Z,1013.88
2018-08-31T03:35:11.586Z,1013.92
2018-08-31T03:36:11.708Z,1013.87
2018-08-31T03:37:11.626Z,1013.93
2018-08-31T03:39:11.672Z,1013.92
2018-08-31T03:40:11.693Z,1013.9
2018-08-31T03:41:11.714Z,1013.87
2018-08-31T03:42:11.736Z,1013.91
2018-08-31T03:43:11.758Z,1013.92
2018-08-31T03:44:11.778Z,1013.9
2018-08-31T03:45:11.800Z,1013.92
2018-08-31T03:46:11.822Z,1013.9
2018-08-31T03:47:11.843Z,1013.94
2018-08-31T03:48:11.868Z,1013.9
2018-08-31T03:49:11.885Z,1013.89
2018-08-31T03:50:11.907Z,1013.84
2018-08-31T03:51:11.929Z,1013.88
2018-08-31T03:52:11.951Z,1013.9
2018-08-31T03:54:12.027Z,1013.82
2018-08-31T03:55:12.020Z,1013.86
2018-08-31T03:56:12.039Z,1013.85
2018-08-31T03:57:12.058Z,1013.83
2018-08-31T03:58:12.080Z,1013.82
2018-08-31T03:59:12.101Z,1013.82
2018-08-31T04:00:12.121Z,1013.78
2018-08-31T04:01:12.144Z,1013.77
2018-08-31T04:02:12.165Z,1013.77
2018-08-31T04:03:12.185Z,1013.75
2018-08-31T04:04:12.214Z,1013.79
2018-08-31T04:05:12.229Z,1013.75
2018-08-31T04:06:12.249Z,1013.78
2018-08-31T04:07:12.271Z,1013.78
2018-08-31T04:08:12.293Z,1013.81
2018-08-31T04:09:12.315Z,1013.85
2018-08-31T04:10:12.334Z,1013.82
2018-08-31T04:11:12.355Z,1013.86
2018-08-31T04:12:12.379Z,1013.86
2018-08-31T04:13:12.398Z,1013.85
2018-08-31T04:14:12.421Z,1013.85
2018-08-31T04:15:12.543Z,1013.81
2018-08-31T04:16:12.464Z,1013.79
2018-08-31T04:17:12.484Z,1013.86
2018-08-31T04:18:12.506Z,1013.86
2018-08-31T04:19:12.534Z,1013.91
2018-08-31T04:20:12.549Z,1013.93
2018-08-31T04:21:12.569Z,1013.9
2018-08-31T04:22:12.592Z,1013.95
2018-08-31T04:23:12.617Z,1013.95
2018-08-31T04:24:12.634Z,1013.95
2018-08-31T04:26:12.677Z,1013.97
2018-08-31T04:27:12.708Z,1013.95
2018-08-31T04:28:12.718Z,1013.97
2018-08-31T04:29:12.742Z,1013.98
2018-08-31T04:30:12.761Z,1013.98
2018-08-31T04:31:12.828Z,1013.97
2018-08-31T04:32:12.805Z,1013.98
2018-08-31T04:33:12.834Z,1014.01
2018-08-31T04:34:12.954Z,1013.98
2018-08-31T04:35:12.866Z,1013.98
2018-08-31T04:36:12.891Z,1014
2018-08-31T04:37:12.909Z,1014
2018-08-31T04:38:12.931Z,1014.02
2018-08-31T04:39:12.952Z,1014.01
2018-08-31T04:40:12.974Z,1014.05
2018-08-31T04:42:13.017Z,1014.09
2018-08-31T04:43:13.037Z,1014.13
2018-08-31T04:44:13.059Z,1014.14
2018-08-31T04:45:13.081Z,1014.19
2018-08-31T04:46:13.101Z,1014.21
2018-08-31T04:47:13.123Z,1014.2
2018-08-31T04:48:13.155Z,1014.19
2018-08-31T04:49:13.166Z,1014.15
2018-08-31T04:50:13.222Z,1014.2
2018-08-31T04:51:13.209Z,1014.16
2018-08-31T04:52:13.230Z,1014.15
2018-08-31T04:53:13.251Z,1014.16
2018-08-31T04:54:13.271Z,1014.19
2018-08-31T04:55:13.292Z,1014.12
2018-08-31T04:56:13.315Z,1014.13
2018-08-31T04:58:13.357Z,1014.11
2018-08-31T04:59:13.379Z,1014.18
2018-08-31T05:00:13.400Z,1014.16
2018-08-31T05:01:13.423Z,1014.15
2018-08-31T05:02:13.443Z,1014.16
2018-08-31T05:03:13.464Z,1014.22
2018-08-31T05:04:13.485Z,1014.15
2018-08-31T05:05:13.510Z,1014.2
2018-08-31T05:06:13.527Z,1014.11
2018-08-31T05:07:13.552Z,1014.16
2018-08-31T05:08:13.570Z,1014.14
2018-08-31T05:09:13.599Z,1014.15
2018-08-31T05:10:13.614Z,1014.08
2018-08-31T05:11:13.635Z,1014.11
2018-08-31T05:12:13.656Z,1014.14
2018-08-31T05:14:13.699Z,1014.13
2018-08-31T05:15:13.721Z,1014.18
2018-08-31T05:16:13.810Z,1014.14
2018-08-31T05:17:13.763Z,1014.2
2018-08-31T05:18:13.786Z,1014.25
2018-08-31T05:19:13.806Z,1014.21
2018-08-31T05:20:13.829Z,1014.18
2018-08-31T05:21:13.851Z,1014.23
2018-08-31T05:22:13.879Z,1014.13
2018-08-31T05:23:13.899Z,1014.22
2018-08-31T05:24:13.917Z,1014.19
2018-08-31T05:25:13.938Z,1014.18
2018-08-31T05:26:13.960Z,1014.23
2018-08-31T05:27:13.982Z,1014.28
2018-08-31T05:29:14.026Z,1014.3
2018-08-31T05:30:14.048Z,1014.24
2018-08-31T05:31:14.073Z,1014.32
2018-08-31T05:32:14.092Z,1014.28
2018-08-31T05:33:14.114Z,1014.33
2018-08-31T05:34:14.136Z,1014.32
2018-08-31T05:35:14.159Z,1014.34
2018-08-31T05:36:14.181Z,1014.38
2018-08-31T05:37:14.202Z,1014.35
2018-08-31T05:38:14.223Z,1014.42
2018-08-31T05:39:14.250Z,1014.42
2018-08-31T05:40:14.270Z,1014.45
2018-08-31T05:41:14.292Z,1014.48
2018-08-31T05:42:14.314Z,1014.42
2018-08-31T05:43:14.337Z,1014.51
2018-08-31T05:44:14.359Z,1014.48
2018-08-31T05:45:14.381Z,1014.51
2018-08-31T05:46:14.404Z,1014.48
2018-08-31T05:47:14.426Z,1014.49
2018-08-31T05:48:14.448Z,1014.51
2018-08-31T05:49:14.470Z,1014.55
2018-08-31T05:50:14.493Z,1014.57
2018-08-31T05:51:14.516Z,1014.54
2018-08-31T05:52:14.538Z,1014.51
2018-08-31T05:53:14.561Z,1014.48
2018-08-31T05:54:14.584Z,1014.5
2018-08-31T05:55:14.606Z,1014.55
2018-08-31T05:56:14.635Z,1014.52
2018-08-31T05:57:14.651Z,1014.54
2018-08-31T05:58:14.674Z,1014.54
2018-08-31T05:59:14.697Z,1014.57
2018-08-31T06:01:14.742Z,1014.58
2018-08-31T06:02:14.852Z,1014.56
2018-08-31T06:03:14.787Z,1014.57
2018-08-31T06:04:14.808Z,1014.6
2018-08-31T06:05:14.834Z,1014.61
2018-08-31T06:06:14.855Z,1014.58
2018-08-31T06:07:14.879Z,1014.64
2018-08-31T06:08:14.900Z,1014.65
2018-08-31T06:09:14.922Z,1014.64
2018-08-31T06:10:14.944Z,1014.62
2018-08-31T06:11:14.967Z,1014.62
2018-08-31T06:12:15.002Z,1014.66
2018-08-31T06:13:15.012Z,1014.72
2018-08-31T06:14:15.034Z,1014.71
2018-08-31T06:15:15.057Z,1014.66
2018-08-31T06:17:15.101Z,1014.68
2018-08-31T06:18:15.129Z,1014.68
2018-08-31T06:19:15.147Z,1014.7
2018-08-31T06:20:15.173Z,1014.67
2018-08-31T06:21:15.192Z,1014.71
2018-08-31T06:22:15.217Z,1014.7
2018-08-31T06:23:15.237Z,1014.75
2018-08-31T06:24:15.260Z,1014.72
2018-08-31T06:25:15.282Z,1014.73
2018-08-31T06:26:15.303Z,1014.75
2018-08-31T06:27:15.391Z,1014.76
2018-08-31T06:28:15.350Z,1014.75
2018-08-31T06:29:15.372Z,1014.77
2018-08-31T06:30:15.395Z,1014.79
2018-08-31T06:31:15.417Z,1014.82
2018-08-31T06:33:15.462Z,1014.77
2018-08-31T06:34:15.485Z,1014.76
2018-08-31T06:35:15.512Z,1014.78
2018-08-31T06:36:15.530Z,1014.82
2018-08-31T06:37:15.552Z,1014.83
2018-08-31T06:38:15.576Z,1014.79
2018-08-31T06:39:15.597Z,1014.77
2018-08-31T06:40:15.620Z,1014.83
2018-08-31T06:41:15.642Z,1014.78
2018-08-31T06:42:15.666Z,1014.82
2018-08-31T06:43:15.687Z,1014.79
2018-08-31T06:44:15.708Z,1014.76
2018-08-31T06:45:15.732Z,1014.76
2018-08-31T06:46:15.755Z,1014.79
2018-08-31T06:47:15.781Z,1014.79
2018-08-31T06:49:15.823Z,1014.76
2018-08-31T06:50:15.845Z,1014.85
2018-08-31T06:51:15.876Z,1014.85
2018-08-31T06:52:15.892Z,1014.84
2018-08-31T06:53:15.914Z,1014.85
2018-08-31T06:54:15.937Z,1014.87
2018-08-31T06:55:15.964Z,1014.84
2018-08-31T06:56:15.983Z,1014.86
2018-08-31T06:57:16.006Z,1014.93
2018-08-31T06:58:16.028Z,1015.02
2018-08-31T06:59:16.053Z,1015.02
2018-08-31T07:00:16.074Z,1015.05
2018-08-31T07:01:16.098Z,1015.07
2018-08-31T07:02:16.121Z,1015.11
2018-08-31T07:04:16.168Z,1015.06
2018-08-31T07:05:16.190Z,1015.05
2018-08-31T07:06:16.212Z,1015.11
2018-08-31T07:07:16.236Z,1015.1
2018-08-31T07:08:16.259Z,1015.15
2018-08-31T07:09:16.283Z,1015.02
2018-08-31T07:10:16.308Z,1015.11
2018-08-31T07:11:16.328Z,1015.09
2018-08-31T07:12:16.454Z,1015.15
2018-08-31T07:13:16.374Z,1015.07
2018-08-31T07:14:16.397Z,1015.11
2018-08-31T07:15:16.424Z,1015.15
2018-08-31T07:16:16.444Z,1015.12
2018-08-31T07:17:16.474Z,1015.16
2018-08-31T07:18:16.489Z,1015.25
2018-08-31T07:19:16.569Z,1015.2
2018-08-31T07:20:16.537Z,1015.27
2018-08-31T07:21:16.559Z,1015.26
2018-08-31T07:22:16.584Z,1015.24
2018-08-31T07:23:16.604Z,1015.21
2018-08-31T07:24:16.626Z,1015.18
2018-08-31T07:25:16.650Z,1015.22
2018-08-31T07:26:16.694Z,1015.23
2018-08-31T07:27:16.696Z,1015.24
2018-08-31T07:28:16.720Z,1015.24
2018-08-31T07:29:16.743Z,1015.29
2018-08-31T07:30:16.765Z,1015.25
2018-08-31T07:31:16.789Z,1015.33
2018-08-31T07:32:16.936Z,1015.35
2018-08-31T07:33:16.835Z,1015.3
2018-08-31T07:34:16.858Z,1015.33
2018-08-31T07:36:16.989Z,1015.38
2018-08-31T07:37:16.926Z,1015.33
2018-08-31T07:38:16.950Z,1015.41
2018-08-31T07:39:16.973Z,1015.41
2018-08-31T07:40:16.997Z,1015.41
2018-08-31T07:41:17.020Z,1015.46
2018-08-31T07:42:17.058Z,1015.43
2018-08-31T07:43:17.068Z,1015.42
2018-08-31T07:44:17.087Z,1015.43
2018-08-31T07:45:17.111Z,1015.41
2018-08-31T07:46:17.134Z,1015.47
2018-08-31T07:47:17.157Z,1015.44
2018-08-31T07:48:17.180Z,1015.48
2018-08-31T07:49:17.203Z,1015.47
2018-08-31T07:50:17.226Z,1015.45
2018-08-31T07:52:17.274Z,1015.49
2018-08-31T07:53:17.296Z,1015.51
2018-08-31T07:54:17.318Z,1015.55
2018-08-31T07:55:17.341Z,1015.53
2018-08-31T07:56:17.365Z,1015.49
2018-08-31T07:57:17.385Z,1015.53
2018-08-31T07:58:17.410Z,1015.55
2018-08-31T07:59:17.433Z,1015.54
2018-08-31T08:00:17.456Z,1015.52
2018-08-31T08:01:17.478Z,1015.55
2018-08-31T08:02:17.509Z,1015.53
2018-08-31T08:03:17.524Z,1015.54
2018-08-31T08:04:17.546Z,1015.59
2018-08-31T08:05:17.570Z,1015.57
2018-08-31T08:06:17.592Z,1015.6
2018-08-31T08:08:17.641Z,1015.62
2018-08-31T08:09:17.660Z,1015.66
2018-08-31T08:10:17.684Z,1015.61
2018-08-31T08:11:17.706Z,1015.59
2018-08-31T08:12:17.729Z,1015.65
2018-08-31T08:13:17.752Z,1015.6
2018-08-31T08:14:17.775Z,1015.68
2018-08-31T08:15:17.797Z,1015.66
2018-08-31T08:16:17.820Z,1015.71
2018-08-31T08:17:17.845Z,1015.76
2018-08-31T08:18:17.870Z,1015.71
2018-08-31T08:19:17.889Z,1015.76
2018-08-31T08:20:17.912Z,1015.77
2018-08-31T08:21:17.934Z,1015.76
2018-08-31T08:22:17.956Z,1015.76
2018-08-31T08:24:18.004Z,1015.8
2018-08-31T08:25:18.027Z,1015.79
2018-08-31T08:26:18.053Z,1015.8
2018-08-31T08:27:18.072Z,1015.81
2018-08-31T08:28:18.161Z,1015.77
2018-08-31T08:29:18.118Z,1015.81
2018-08-31T08:30:18.141Z,1015.78
2018-08-31T08:31:18.167Z,1015.79
2018-08-31T08:32:18.187Z,1015.82
2018-08-31T08:33:18.211Z,1015.83
2018-08-31T08:34:18.233Z,1015.81
2018-08-31T08:35:18.256Z,1015.8
2018-08-31T08:36:18.282Z,1015.81
2018-08-31T08:37:18.302Z,1015.8
2018-08-31T08:39:18.349Z,1015.8
2018-08-31T08:40:18.372Z,1015.82
2018-08-31T08:41:18.393Z,1015.84
2018-08-31T08:42:18.432Z,1015.84
2018-08-31T08:43:18.440Z,1015.85
2018-08-31T08:44:18.463Z,1015.86
2018-08-31T08:45:18.486Z,1015.86
2018-08-31T08:46:18.510Z,1015.85
2018-08-31T08:47:18.532Z,1015.85
2018-08-31T08:48:18.649Z,1015.93
2018-08-31T08:49:18.579Z,1015.9
2018-08-31T08:50:18.609Z,1015.9
2018-08-31T08:51:18.625Z,1015.85
2018-08-31T08:52:18.648Z,1015.87
2018-08-31T08:53:18.671Z,1015.84
2018-08-31T08:54:18.695Z,1015.85
2018-08-31T08:55:18.722Z,1015.88
2018-08-31T08:56:18.739Z,1015.87
2018-08-31T08:57:18.766Z,1015.91
2018-08-31T08:58:18.868Z,1015.92
2018-08-31T08:59:18.811Z,1015.95
2018-08-31T09:00:18.834Z,1015.93
2018-08-31T09:01:18.858Z,1015.95
2018-08-31T09:02:18.881Z,1015.98
2018-08-31T09:03:18.904Z,1015.95
2018-08-31T09:04:18.928Z,1015.98
2018-08-31T09:05:18.952Z,1015.99
2018-08-31T09:06:18.974Z,1016.01
2018-08-31T09:07:18.998Z,1015.99
2018-08-31T09:08:19.023Z,1016.01
2018-08-31T09:09:19.045Z,1016.01
2018-08-31T09:11:19.098Z,1016.07
2018-08-31T09:12:19.186Z,1016.09
2018-08-31T09:13:19.141Z,1016.07
2018-08-31T09:14:19.167Z,1016.09
2018-08-31T09:15:19.188Z,1016.03
2018-08-31T09:16:19.212Z,1016.09
2018-08-31T09:17:19.234Z,1016.05
2018-08-31T09:18:19.303Z,1016.09
2018-08-31T09:19:19.283Z,1016.07
2018-08-31T09:20:19.361Z,1016.05
2018-08-31T09:21:19.330Z,1016.11
2018-08-31T09:22:19.353Z,1016.12
2018-08-31T09:23:19.378Z,1016.13
2018-08-31T09:24:19.401Z,1016.14
2018-08-31T09:25:19.425Z,1016.15
2018-08-31T09:27:19.485Z,1016.11
2018-08-31T09:28:19.497Z,1016.09
2018-08-31T09:29:19.522Z,1016.09
2018-08-31T09:30:19.545Z,1016.09
2018-08-31T09:31:19.577Z,1016.04
2018-08-31T09:32:19.595Z,1016.05
2018-08-31T09:33:19.618Z,1016.02
2018-08-31T09:34:19.645Z,1016.01
2018-08-31T09:35:19.666Z,1016.03
2018-08-31T09:36:19.689Z,1016.07
2018-08-31T09:37:19.714Z,1016.02
2018-08-31T09:38:19.797Z,1016.06
2018-08-31T09:39:19.763Z,1016.07
2018-08-31T09:40:19.787Z,1016.07
2018-08-31T09:41:19.813Z,1016.04
2018-08-31T09:43:19.862Z,1016.11
2018-08-31T09:44:19.886Z,1016.09
2018-08-31T09:45:19.911Z,1016.03
2018-08-31T09:46:19.936Z,1016.08
2018-08-31T09:47:19.960Z,1016.06
2018-08-31T09:48:19.986Z,1016.05
2018-08-31T09:49:20.009Z,1016.08
2018-08-31T09:50:20.038Z,1016.14
2018-08-31T09:51:20.064Z,1016.05
2018-08-31T09:52:20.086Z,1016.09
2018-08-31T09:53:20.111Z,1016.09
2018-08-31T09:54:20.136Z,1016.03
2018-08-31T09:55:20.162Z,1016.04
2018-08-31T09:56:20.187Z,1016.11
2018-08-31T09:57:20.243Z,1016.07
2018-08-31T09:59:20.264Z,1015.99
2018-08-31T10:00:20.288Z,1015.99
2018-08-31T10:01:20.315Z,1015.94
2018-08-31T10:02:20.341Z,1015.96
2018-08-31T10:03:20.367Z,1015.95
2018-08-31T10:04:20.391Z,1016
2018-08-31T10:05:20.418Z,1015.97
2018-08-31T10:06:20.444Z,1015.99
2018-08-31T10:07:20.470Z,1016
2018-08-31T10:08:20.495Z,1016.04
2018-08-31T10:09:20.519Z,1016.03
2018-08-31T10:10:20.546Z,1015.99
2018-08-31T10:11:20.572Z,1016.02
2018-08-31T10:12:20.598Z,1016.01
2018-08-31T10:14:20.649Z,1015.97
2018-08-31T10:15:20.674Z,1016.01
2018-08-31T10:16:20.704Z,1015.99
2018-08-31T10:17:20.723Z,1015.97
2018-08-31T10:18:20.749Z,1015.99
2018-08-31T10:19:20.775Z,1016.01
2018-08-31T10:20:20.801Z,1015.98
2018-08-31T10:21:20.826Z,1016.01
2018-08-31T10:22:20.849Z,1016.03
2018-08-31T10:23:20.876Z,1016.04
2018-08-31T10:24:21.001Z,1016.01
2018-08-31T10:25:20.925Z,1016.02
2018-08-31T10:26:20.952Z,1016.01
2018-08-31T10:27:20.977Z,1016
2018-08-31T10:28:21.006Z,1015.98
2018-08-31T10:29:21.029Z,1015.99
2018-08-31T10:30:21.053Z,1016.01
2018-08-31T10:31:21.079Z,1015.99
2018-08-31T10:32:21.103Z,1016.03
2018-08-31T10:33:21.128Z,1016.04
2018-08-31T10:34:21.154Z,1016.03
2018-08-31T10:35:21.179Z,1016.05
2018-08-31T10:36:21.207Z,1016.05
2018-08-31T10:37:21.230Z,1015.99
2018-08-31T10:38:21.255Z,1016.06
2018-08-31T10:39:21.281Z,1015.98
2018-08-31T10:40:21.465Z,1015.96
2018-08-31T10:41:21.331Z,1015.95
2018-08-31T10:42:21.358Z,1015.98
2018-08-31T10:43:21.383Z,1015.98
2018-08-31T10:44:21.410Z,1015.95
2018-08-31T10:46:21.517Z,1015.91
2018-08-31T10:47:21.485Z,1015.93
2018-08-31T10:48:21.510Z,1015.93
2018-08-31T10:49:21.535Z,1015.97
2018-08-31T10:50:21.562Z,1015.98
2018-08-31T10:51:21.589Z,1015.97
2018-08-31T10:52:21.613Z,1015.98
2018-08-31T10:53:21.644Z,1016.02
2018-08-31T10:54:21.671Z,1015.95
2018-08-31T10:55:21.696Z,1015.92
2018-08-31T10:56:21.716Z,1015.94
2018-08-31T10:57:21.743Z,1015.9
2018-08-31T10:58:21.769Z,1015.95
2018-08-31T10:59:21.794Z,1015.95
2018-08-31T11:00:21.820Z,1015.92
2018-08-31T11:02:21.873Z,1015.89
2018-08-31T11:03:21.899Z,1015.88
2018-08-31T11:04:21.925Z,1015.92
2018-08-31T11:05:21.949Z,1015.97
2018-08-31T11:06:21.976Z,1015.97
2018-08-31T11:07:22.002Z,1015.93
2018-08-31T11:08:22.029Z,1015.9
2018-08-31T11:09:22.056Z,1015.92
2018-08-31T11:10:22.080Z,1015.86
2018-08-31T11:11:22.107Z,1015.85
2018-08-31T11:12:22.133Z,1015.86
2018-08-31T11:13:22.161Z,1015.84
2018-08-31T11:14:22.188Z,1015.82
2018-08-31T11:15:22.272Z,1015.84
2018-08-31T11:16:22.237Z,1015.8
2018-08-31T11:18:22.289Z,1015.81
2018-08-31T11:19:22.316Z,1015.86
2018-08-31T11:20:22.343Z,1015.82
2018-08-31T11:21:22.367Z,1015.81
2018-08-31T11:22:22.393Z,1015.83
2018-08-31T11:23:22.420Z,1015.85
2018-08-31T11:24:22.445Z,1015.84
2018-08-31T11:25:22.471Z,1015.87
2018-08-31T11:26:22.497Z,1015.85
2018-08-31T11:27:22.529Z,1015.86
2018-08-31T11:28:22.549Z,1015.82
2018-08-31T11:29:22.575Z,1015.84
2018-08-31T11:30:22.606Z,1015.92
2018-08-31T11:31:22.631Z,1015.86
2018-08-31T11:32:22.653Z,1015.93
2018-08-31T11:34:22.705Z,1015.89
2018-08-31T11:35:22.731Z,1015.95
2018-08-31T11:36:22.757Z,1015.89
2018-08-31T11:37:22.782Z,1015.9
2018-08-31T11:38:22.809Z,1015.89
2018-08-31T11:39:22.834Z,1015.95
2018-08-31T11:40:22.860Z,1015.9
2018-08-31T11:41:22.887Z,1015.94
2018-08-31T11:42:22.923Z,1015.96
2018-08-31T11:43:22.983Z,1015.94
2018-08-31T11:44:22.965Z,1015.88
2018-08-31T11:45:22.990Z,1015.93
2018-08-31T11:46:23.019Z,1015.92
2018-08-31T11:47:23.043Z,1015.95
2018-08-31T11:49:23.095Z,1015.92
2018-08-31T11:50:23.120Z,1015.92
2018-08-31T11:51:23.147Z,1015.9
2018-08-31T11:52:23.173Z,1015.89
2018-08-31T11:53:23.199Z,1015.88
2018-08-31T11:54:23.224Z,1015.97
2018-08-31T11:55:23.265Z,1015.99
2018-08-31T11:56:23.277Z,1015.94
2018-08-31T11:57:23.302Z,1015.89
2018-08-31T11:58:23.330Z,1015.96
2018-08-31T11:59:23.355Z,1015.92
2018-08-31T12:00:23.384Z,1015.97
2018-08-31T12:01:23.480Z,1015.97
2018-08-31T12:02:23.432Z,1015.98
2018-08-31T12:03:23.459Z,1015.96
2018-08-31T12:04:23.485Z,1015.96
2018-08-31T12:05:23.510Z,1015.98
2018-08-31T12:06:23.536Z,1016.01
2018-08-31T12:07:23.562Z,1016.02
2018-08-31T12:08:23.588Z,1015.99
2018-08-31T12:09:23.614Z,1015.95
2018-08-31T12:10:23.640Z,1015.94
2018-08-31T12:11:23.665Z,1015.96
2018-08-31T12:12:23.692Z,1015.97
2018-08-31T12:13:23.719Z,1016.01
2018-08-31T12:14:23.744Z,1016.02
2018-08-31T12:15:23.770Z,1016.03
2018-08-31T12:16:23.794Z,1015.99
2018-08-31T12:17:23.821Z,1016.02
2018-08-31T12:18:23.849Z,1015.99
2018-08-31T12:19:23.873Z,1015.96
2018-08-31T12:21:23.925Z,1015.98
2018-08-31T12:22:23.951Z,1015.94
2018-08-31T12:23:23.983Z,1015.99
2018-08-31T12:24:24.005Z,1015.98
2018-08-31T12:25:24.033Z,1015.96
2018-08-31T12:26:24.055Z,1015.93
2018-08-31T12:27:24.083Z,1015.92
2018-08-31T12:28:24.106Z,1015.88
2018-08-31T12:29:24.133Z,1015.87
2018-08-31T12:30:24.158Z,1015.92
2018-08-31T12:31:24.184Z,1015.94
2018-08-31T12:32:24.212Z,1015.9
2018-08-31T12:33:24.236Z,1015.94
2018-08-31T12:34:24.263Z,1015.86
2018-08-31T12:35:24.288Z,1015.93
2018-08-31T12:37:24.341Z,1015.89
2018-08-31T12:38:24.366Z,1015.85
2018-08-31T12:39:24.391Z,1015.86
2018-08-31T12:40:24.418Z,1015.85
2018-08-31T12:41:24.444Z,1015.79
2018-08-31T12:42:24.469Z,1015.79
2018-08-31T12:43:24.495Z,1015.82
2018-08-31T12:44:24.595Z,1015.8
2018-08-31T12:45:24.546Z,1015.79
2018-08-31T12:46:24.573Z,1015.76
2018-08-31T12:47:24.599Z,1015.79
2018-08-31T12:48:24.628Z,1015.8